Time;durP1;ratioP1;P1;durP2;ratioP2;P2;SDS_P1;SDS_P2;PMS_P1;PMS_P2;Temp;Humidity;BMP_temperature;BMP_pressure;BME280_temperature;BME280_humidity;BME280_pressure;Samples;Min_cycle;Max_cycle;Signal;HPM_P1;HPM_P2
2021/10/13 00:02:15;;;;;;;11.23;5.57;;;;;;;9.50;69.99;97665.91;5073267;28;20476;-79
2021/10/13 00:04:40;;;;;;;8.30;5.03;;;;;;;9.50;69.71;97664.09;5056594;28;20079;-79
2021/10/13 00:07:06;;;;;;;11.88;5.88;;;;;;;9.48;69.70;97665.34;5092198;28;20514;-79
2021/10/13 00:09:31;;;;;;;11.55;6.45;;;;;;;9.44;69.82;97665.03;5076311;28;20048;-78
2021/10/13 00:11:56;;;;;;;12.93;6.70;;;;;;;9.61;69.88;97653.94;5076895;28;20030;-79
2021/10/13 00:14:22;;;;;;;10.65;6.20;;;;;;;9.62;69.65;97652.94;5056736;28;20031;-78
2021/10/13 00:17:03;;;;;;;11.73;7.18;;;;;;;9.57;69.54;97659.59;5057365;28;20047;-79
2021/10/13 00:19:29;;;;;;;11.38;6.57;;;;;;;9.62;69.63;97655.53;5073903;28;20040;-79
2021/10/13 00:21:54;;;;;;;12.00;6.43;;;;;;;9.55;69.50;97666.81;5091507;28;20028;-78
2021/10/13 00:24:20;;;;;;;11.00;6.05;;;;;;;9.54;69.57;97659.25;5056719;28;20036;-79
2021/10/13 00:26:45;;;;;;;9.10;6.43;;;;;;;9.45;69.68;97666.59;5074050;28;20537;-78
2021/10/13 00:29:10;;;;;;;13.05;6.72;;;;;;;9.47;69.59;97667.16;5056619;28;20701;-79
2021/10/13 00:31:36;;;;;;;11.15;6.40;;;;;;;9.51;69.63;97673.50;5082155;28;20098;-79
2021/10/13 00:34:01;;;;;;;12.13;7.35;;;;;;;9.54;69.71;97685.25;5076527;28;20028;-79
2021/10/13 00:36:26;;;;;;;15.00;7.43;;;;;;;9.53;69.69;97681.84;5059353;28;20039;-79
2021/10/13 00:38:52;;;;;;;15.93;7.90;;;;;;;9.52;69.66;97688.06;5077065;28;20038;-79
2021/10/13 00:41:17;;;;;;;12.90;7.38;;;;;;;9.48;69.64;97691.34;5052845;28;20111;-79
2021/10/13 00:43:43;;;;;;;12.93;7.53;;;;;;;9.42;69.74;97687.03;5093902;28;20035;-79
2021/10/13 00:46:09;;;;;;;12.38;6.70;;;;;;;9.42;69.47;97687.03;5076220;28;20491;-79
2021/10/13 00:48:34;;;;;;;15.95;8.45;;;;;;;9.34;70.19;97690.75;5076488;28;20542;-79
2021/10/13 00:51:00;;;;;;;15.23;8.02;;;;;;;9.37;69.34;97687.69;5093003;28;20078;-79
2021/10/13 00:53:25;;;;;;;12.55;7.53;;;;;;;9.34;69.96;97693.38;5093576;28;20032;-79
2021/10/13 00:55:52;;;;;;;13.73;8.38;;;;;;;9.41;70.01;97694.06;5093106;28;20035;-79
2021/10/13 00:58:18;;;;;;;15.02;8.63;;;;;;;9.38;69.51;97692.69;5093412;28;20114;-79
2021/10/13 01:00:45;;;;;;;15.35;8.43;;;;;;;9.28;70.02;97696.84;5093229;28;20107;-79
2021/10/13 01:03:27;;;;;;;12.25;6.88;;;;;;;9.18;70.08;97698.19;5076621;28;20047;-79
2021/10/13 01:06:11;;;;;;;16.95;9.18;;;;;;;9.23;69.99;97697.50;5076432;28;20027;-78
2021/10/13 01:09:06;;;;;;;13.02;8.02;;;;;;;9.10;69.92;97715.88;5093048;28;20028;-79
2021/10/13 01:11:43;;;;;;;14.52;8.45;;;;;;;9.05;70.44;97721.75;5069241;28;20103;-79
2021/10/13 01:14:20;;;;;;;14.45;8.43;;;;;;;9.06;70.50;97715.53;5072045;28;20601;-79
2021/10/13 01:16:53;;;;;;;17.45;9.15;;;;;;;9.15;69.77;97714.22;5072760;28;20020;-78
2021/10/13 01:19:47;;;;;;;12.65;8.07;;;;;;;9.18;69.93;97716.38;5056158;28;20581;-79
2021/10/13 01:22:18;;;;;;;16.02;9.15;;;;;;;9.25;69.82;97721.44;5055141;28;20483;-79
2021/10/13 01:24:57;;;;;;;13.52;8.23;;;;;;;9.09;70.23;97720.28;5072743;28;20031;-79
2021/10/13 01:27:49;;;;;;;13.88;7.78;;;;;;;8.99;70.58;97730.41;5055963;28;20063;-79
2021/10/13 01:30:16;;;;;;;15.32;8.85;;;;;;;9.19;69.96;97724.94;5072145;28;20075;-79
2021/10/13 01:32:43;;;;;;;14.40;8.15;;;;;;;9.16;69.39;97726.16;5072487;28;20036;-78
2021/10/13 01:35:10;;;;;;;15.27;8.10;;;;;;;9.16;69.55;97725.38;5071568;28;20028;-78
2021/10/13 01:37:49;;;;;;;12.25;7.68;;;;;;;8.93;69.87;97731.31;5053140;28;20177;-79
2021/10/13 01:40:16;;;;;;;16.88;9.05;;;;;;;8.99;69.77;97730.41;5072131;28;20032;-78
2021/10/13 01:42:45;;;;;;;17.40;9.00;;;;;;;9.04;69.60;97733.13;5072259;28;20121;-79
2021/10/13 01:45:11;;;;;;;15.93;8.77;;;;;;;9.11;69.76;97728.63;5055653;28;20110;-78
2021/10/13 01:47:39;;;;;;;16.30;9.15;;;;;;;9.09;69.47;97735.09;5038609;28;20119;-79
2021/10/13 01:50:05;;;;;;;14.82;8.98;;;;;;;9.05;69.58;97732.13;5054746;28;20024;-79
2021/10/13 01:52:31;;;;;;;15.23;8.32;;;;;;;9.07;69.72;97734.50;5072036;28;20479;-79
2021/10/13 01:54:59;;;;;;;16.08;8.80;;;;;;;9.04;69.49;97737.53;5072115;28;20602;-79
2021/10/13 01:57:25;;;;;;;12.50;7.00;;;;;;;9.03;69.15;97736.75;5071915;28;20038;-78
2021/10/13 01:59:53;;;;;;;13.63;6.90;;;;;;;8.84;68.42;97732.59;5072099;28;20024;-79
2021/10/13 02:02:19;;;;;;;10.35;5.80;;;;;;;8.78;67.94;97737.66;5054976;28;20032;-79
2021/10/13 02:04:45;;;;;;;9.45;5.68;;;;;;;8.65;67.71;97743.00;5072318;28;20594;-78
2021/10/13 02:07:12;;;;;;;10.85;6.90;;;;;;;8.54;67.91;97747.13;5055067;28;20809;-79
2021/10/13 02:09:37;;;;;;;11.27;6.70;;;;;;;8.49;67.79;97746.19;5055114;28;20531;-79
2021/10/13 02:12:04;;;;;;;10.02;6.20;;;;;;;8.44;68.17;97749.44;5071105;28;20107;-78
2021/10/13 02:14:30;;;;;;;9.30;6.22;;;;;;;8.33;68.07;97739.72;5055253;28;20056;-79
2021/10/13 02:16:57;;;;;;;12.63;6.65;;;;;;;8.26;68.56;97747.59;5054667;28;20055;-79
2021/10/13 02:19:27;;;;;;;10.95;6.60;;;;;;;8.20;68.81;97746.63;5072058;28;20033;-79
2021/10/13 02:21:54;;;;;;;10.63;6.57;;;;;;;8.31;68.32;97752.13;5054455;28;20032;-78
2021/10/13 02:24:27;;;;;;;11.40;6.78;;;;;;;8.21;68.27;97747.44;5054877;28;20056;-78
2021/10/13 02:27:05;;;;;;;12.13;7.03;;;;;;;8.10;68.30;97751.53;5071621;28;20129;-79
2021/10/13 02:29:31;;;;;;;12.73;6.07;;;;;;;8.32;68.30;97754.50;5038256;28;20101;-79
2021/10/13 02:31:56;;;;;;;11.27;6.93;;;;;;;8.34;68.67;97749.88;5071403;28;20032;-79
2021/10/13 02:34:22;;;;;;;12.73;6.50;;;;;;;8.36;68.90;97754.88;5054376;28;20034;-78
2021/10/13 02:36:47;;;;;;;8.95;4.90;;;;;;;8.37;68.28;97749.47;5088068;28;20040;-78
2021/10/13 02:39:13;;;;;;;8.85;5.55;;;;;;;8.28;68.47;97750.75;5054442;28;20644;-79
2021/10/13 02:41:40;;;;;;;12.35;7.60;;;;;;;8.16;68.35;97747.28;5052788;28;20039;-78
2021/10/13 02:44:06;;;;;;;9.18;5.90;;;;;;;8.16;68.52;97755.06;5054635;28;20062;-79
2021/10/13 02:47:00;;;;;;;9.63;5.95;;;;;;;7.99;68.94;97760.00;5037796;28;20081;-79
2021/10/13 02:49:26;;;;;;;11.40;6.07;;;;;;;8.15;68.44;97753.47;5054237;28;20037;-79
2021/10/13 02:52:10;;;;;;;10.70;6.43;;;;;;;8.00;68.47;97757.22;5088667;28;20043;-79
2021/10/13 02:54:45;;;;;;;13.88;7.55;;;;;;;7.86;68.79;97759.13;5038003;28;20035;-79
2021/10/13 02:57:11;;;;;;;11.43;6.95;;;;;;;7.97;68.57;97764.59;5037661;28;20046;-79
2021/10/13 02:59:46;;;;;;;9.70;5.53;;;;;;;7.80;68.38;97764.34;5071185;28;20111;-79
2021/10/13 03:02:13;;;;;;;7.95;5.15;;;;;;;7.88;67.74;97764.06;5037356;28;20142;-79
2021/10/13 03:04:53;;;;;;;7.95;5.38;;;;;;;7.73;67.68;97766.19;5037450;28;20032;-78
2021/10/13 03:07:24;;;;;;;7.93;4.63;;;;;;;7.68;67.41;97757.25;5037226;28;20375;-78
2021/10/13 03:09:53;;;;;;;9.05;5.75;;;;;;;7.68;67.32;97757.25;5053763;28;20032;-79
2021/10/13 03:12:27;;;;;;;10.15;5.50;;;;;;;7.49;68.28;97761.56;5050439;28;20037;-78
2021/10/13 03:14:55;;;;;;;11.40;6.18;;;;;;;7.48;67.83;97761.78;5056575;28;20036;-79
2021/10/13 03:17:21;;;;;;;9.93;5.80;;;;;;;7.49;68.02;97758.97;5054116;28;20477;-79
2021/10/13 03:19:47;;;;;;;10.68;5.85;;;;;;;7.49;68.13;97769.34;5054051;28;20060;-78
2021/10/13 03:22:15;;;;;;;11.60;7.13;;;;;;;7.44;68.12;97771.00;5054046;28;20687;-78
2021/10/13 03:24:41;;;;;;;9.00;5.35;;;;;;;7.41;68.22;97779.97;5052930;28;20032;-78
2021/10/13 03:27:06;;;;;;;8.32;5.57;;;;;;;7.35;67.67;97782.59;5066449;28;20086;-78
2021/10/13 03:29:32;;;;;;;10.75;6.10;;;;;;;7.32;68.45;97783.81;5088620;28;20063;-79
2021/10/13 03:31:57;;;;;;;10.55;6.75;;;;;;;7.22;68.56;97773.88;5070450;28;20525;-78
2021/10/13 03:34:23;;;;;;;10.23;6.35;;;;;;;7.20;68.52;97768.13;5053938;28;20027;-78
2021/10/13 03:36:49;;;;;;;9.13;5.07;;;;;;;7.20;68.80;97780.28;5070042;28;20032;-79
2021/10/13 03:39:15;;;;;;;8.15;5.20;;;;;;;7.18;68.59;97779.69;5070817;28;20082;-78
2021/10/13 03:41:42;;;;;;;9.68;6.03;;;;;;;7.12;68.39;97794.25;5053816;28;20081;-79
2021/10/13 03:44:07;;;;;;;10.68;6.15;;;;;;;7.04;68.79;97802.25;5070455;28;20032;-79
2021/10/13 03:46:33;;;;;;;10.07;6.07;;;;;;;7.07;68.59;97807.03;5070690;28;20694;-78
2021/10/13 03:48:58;;;;;;;9.18;5.63;;;;;;;7.08;69.15;97819.78;5053544;28;20039;-79
2021/10/13 03:51:24;;;;;;;11.30;6.45;;;;;;;7.07;68.83;97814.78;5087871;28;20028;-79
2021/10/13 03:53:50;;;;;;;10.63;5.55;;;;;;;7.07;69.00;97827.75;5053572;28;20020;-79
2021/10/13 03:56:16;;;;;;;11.55;6.55;;;;;;;7.00;69.29;97826.97;5070499;28;20125;-78
2021/10/13 03:58:42;;;;;;;10.60;6.00;;;;;;;7.06;68.91;97823.56;5037072;28;20024;-79
2021/10/13 04:01:07;;;;;;;11.70;6.25;;;;;;;7.07;68.71;97818.16;5053537;28;20079;-78
2021/10/13 04:03:33;;;;;;;12.73;7.82;;;;;;;7.02;68.73;97822.38;5053718;28;20499;-78
2021/10/13 04:05:58;;;;;;;13.57;8.35;;;;;;;7.01;67.79;97823.38;5053728;28;20441;-78
2021/10/13 04:08:24;;;;;;;13.15;7.13;;;;;;;6.92;67.94;97830.56;5039113;28;20062;-79
2021/10/13 04:10:49;;;;;;;12.10;8.15;;;;;;;6.82;68.00;97833.59;5056623;28;20032;-78
2021/10/13 04:13:15;;;;;;;13.38;7.47;;;;;;;6.72;68.41;97825.47;5091541;28;20035;-78
2021/10/13 04:15:40;;;;;;;11.00;6.50;;;;;;;6.72;68.36;97839.19;5040369;28;20135;-78
2021/10/13 04:18:06;;;;;;;9.77;5.28;;;;;;;6.72;67.95;97833.25;5073693;28;20099;-79
2021/10/13 04:20:31;;;;;;;7.65;5.53;;;;;;;6.60;68.46;97832.25;5072614;28;20036;-79
2021/10/13 04:22:57;;;;;;;9.82;5.32;;;;;;;6.56;68.60;97848.19;5057023;28;20043;-78
2021/10/13 04:25:22;;;;;;;10.35;5.68;;;;;;;6.52;68.77;97844.41;5073678;28;20087;-78
2021/10/13 04:27:48;;;;;;;8.77;5.00;;;;;;;6.44;69.20;97843.81;5056473;28;20103;-79
2021/10/13 04:30:13;;;;;;;7.75;4.82;;;;;;;6.42;69.41;97841.44;5073196;28;20028;-78
2021/10/13 04:32:39;;;;;;;7.90;4.88;;;;;;;6.43;68.42;97843.03;5073522;28;20111;-78
2021/10/13 04:35:05;;;;;;;8.82;4.82;;;;;;;6.29;68.85;97841.44;5056511;28;20039;-78
2021/10/13 04:37:30;;;;;;;8.40;4.65;;;;;;;6.31;68.86;97849.81;5056377;28;20024;-78
2021/10/13 04:39:55;;;;;;;6.53;4.03;;;;;;;6.27;68.70;97852.00;5039489;28;20031;-80
2021/10/13 04:42:21;;;;;;;6.72;3.72;;;;;;;6.28;68.57;97851.00;5051256;28;20070;-81
2021/10/13 04:44:46;;;;;;;6.45;3.50;;;;;;;6.22;68.18;97853.56;5036681;28;20035;-81
2021/10/13 04:47:11;;;;;;;7.43;3.95;;;;;;;6.18;68.57;97861.72;5052973;28;20604;-81
2021/10/13 04:49:37;;;;;;;6.28;3.75;;;;;;;6.11;68.29;97860.16;5036314;28;20035;-78
2021/10/13 04:52:03;;;;;;;7.03;3.40;;;;;;;6.04;69.04;97857.56;5036080;28;20135;-78
2021/10/13 04:54:28;;;;;;;6.85;3.60;;;;;;;6.07;68.79;97864.91;5036154;28;20042;-78
2021/10/13 04:56:53;;;;;;;6.10;3.58;;;;;;;6.11;68.02;97857.56;5019705;28;20036;-79
2021/10/13 04:59:19;;;;;;;5.75;3.60;;;;;;;6.02;68.09;97856.19;5052662;28;20031;-79
2021/10/13 05:01:44;;;;;;;5.40;3.22;;;;;;;6.03;68.18;97857.75;5068344;28;20089;-78
2021/10/13 05:04:09;;;;;;;8.55;5.03;;;;;;;5.91;68.88;97860.91;5035301;28;20297;-78
2021/10/13 05:06:35;;;;;;;8.93;5.63;;;;;;;5.91;68.64;97854.91;5069529;28;20056;-78
2021/10/13 05:09:00;;;;;;;7.30;4.78;;;;;;;5.98;68.34;97859.16;5035241;28;20028;-78
2021/10/13 05:11:26;;;;;;;7.53;4.95;;;;;;;5.94;68.02;97859.69;5051776;28;20421;-78
2021/10/13 05:13:51;;;;;;;8.00;5.82;;;;;;;6.05;67.88;97859.16;5048829;28;20024;-78
2021/10/13 05:16:16;;;;;;;10.18;7.18;;;;;;;6.16;66.95;97855.19;5035073;28;20036;-78
2021/10/13 05:18:42;;;;;;;11.10;7.47;;;;;;;6.09;67.54;97865.50;5051192;28;20021;-78
2021/10/13 05:21:07;;;;;;;11.43;8.45;;;;;;;5.92;67.35;97872.81;5034921;28;20037;-78
2021/10/13 05:23:32;;;;;;;9.15;7.00;;;;;;;5.88;67.70;97870.81;5035043;28;20530;-78
2021/10/13 05:25:58;;;;;;;8.57;5.60;;;;;;;5.86;67.10;97877.97;5069600;28;20036;-78
2021/10/13 05:28:23;;;;;;;5.70;3.85;;;;;;;5.71;67.62;97875.56;5068990;28;20748;-78
2021/10/13 05:30:49;;;;;;;6.05;3.75;;;;;;;5.72;67.68;97883.09;5100592;28;20028;-78
2021/10/13 05:33:14;;;;;;;4.82;3.00;;;;;;;5.77;67.79;97891.06;5089613;28;20069;-78
2021/10/13 05:35:39;;;;;;;6.00;2.38;;;;;;;5.77;67.41;97877.38;5052510;28;20166;-78
2021/10/13 05:38:05;;;;;;;4.43;2.50;;;;;;;5.89;66.73;97883.53;5092223;28;20072;-78
2021/10/13 05:40:30;;;;;;;5.18;2.10;;;;;;;5.65;67.70;97887.47;5079920;28;20078;-78
2021/10/13 05:42:56;;;;;;;3.67;2.20;;;;;;;5.64;67.88;97888.47;5075368;28;20038;-78
2021/10/13 05:45:21;;;;;;;3.40;2.03;;;;;;;5.59;67.47;97889.06;5075267;28;20031;-78
2021/10/13 05:47:46;;;;;;;3.67;2.03;;;;;;;5.58;66.62;97890.03;5074879;28;20039;-78
2021/10/13 05:50:12;;;;;;;3.25;2.22;;;;;;;5.53;67.61;97891.59;5074780;28;20031;-79
2021/10/13 05:52:37;;;;;;;4.60;2.75;;;;;;;5.52;68.00;97890.00;5075102;28;20541;-78
2021/10/13 05:55:03;;;;;;;4.47;2.38;;;;;;;5.46;68.27;97888.22;5075116;28;20541;-78
2021/10/13 05:57:28;;;;;;;3.90;2.40;;;;;;;5.39;68.54;97904.47;5056913;28;20412;-81
2021/10/13 05:59:58;;;;;;;4.50;2.17;;;;;;;5.50;67.96;97894.56;5034966;28;20415;-79
2021/10/13 06:02:25;;;;;;;3.92;2.20;;;;;;;5.46;67.75;97904.50;5052304;28;20039;-79
2021/10/13 06:04:50;;;;;;;2.60;1.58;;;;;;;5.46;67.69;97903.72;5018198;28;20024;-79
2021/10/13 06:07:15;;;;;;;2.83;1.70;;;;;;;5.48;68.58;97912.06;5069866;28;20691;-79
2021/10/13 06:09:41;;;;;;;3.58;2.33;;;;;;;5.52;67.43;97913.25;5051000;28;20434;-78
2021/10/13 06:12:06;;;;;;;4.28;2.03;;;;;;;5.44;68.05;97924.56;5035958;28;20028;-78
2021/10/13 06:14:32;;;;;;;3.22;1.60;;;;;;;5.46;68.99;97927.75;5034988;28;20085;-78
2021/10/13 06:16:57;;;;;;;3.63;2.10;;;;;;;5.52;69.30;97928.75;5034741;28;20335;-79
2021/10/13 06:19:23;;;;;;;4.53;2.38;;;;;;;5.63;68.58;97934.16;5018205;28;20028;-79
2021/10/13 06:21:48;;;;;;;4.43;2.50;;;;;;;5.88;67.68;97930.25;5034011;28;20024;-79
2021/10/13 06:24:13;;;;;;;3.38;2.17;;;;;;;5.88;67.48;97923.31;5018212;28;20033;-79
2021/10/13 06:26:39;;;;;;;4.45;2.30;;;;;;;5.86;68.88;97930.47;5051084;28;20029;-79
2021/10/13 06:29:05;;;;;;;5.78;2.85;;;;;;;5.95;68.39;97931.88;5051074;28;20476;-79
2021/10/13 06:31:30;;;;;;;5.25;3.30;;;;;;;6.04;68.40;97937.69;5074555;28;20447;-79
2021/10/13 06:33:56;;;;;;;3.72;2.25;;;;;;;6.25;67.82;97944.47;5108215;28;20039;-79
2021/10/13 06:36:22;;;;;;;6.43;3.25;;;;;;;6.21;69.55;97951.06;5076523;28;20119;-79
2021/10/13 06:38:47;;;;;;;5.45;3.35;;;;;;;6.28;68.39;97949.25;5087701;28;20020;-79
2021/10/13 06:41:13;;;;;;;5.28;4.22;;;;;;;6.29;68.42;97950.06;5069500;28;20118;-79
2021/10/13 06:43:39;;;;;;;4.65;2.92;;;;;;;6.30;68.51;97946.47;5068077;28;20046;-79
2021/10/13 06:46:05;;;;;;;3.53;1.98;;;;;;;6.37;67.89;97955.03;5053438;28;20032;-79
2021/10/13 06:48:30;;;;;;;3.42;2.10;;;;;;;6.38;68.23;97957.44;5053051;28;20032;-79
2021/10/13 06:50:55;;;;;;;3.65;2.20;;;;;;;6.43;68.07;97961.22;5086776;28;20063;-79
2021/10/13 06:53:22;;;;;;;3.08;2.22;;;;;;;6.54;68.22;97964.00;5036655;28;20072;-79
2021/10/13 06:55:47;;;;;;;3.10;2.03;;;;;;;6.56;68.98;97963.81;5052701;28;20113;-79
2021/10/13 06:58:13;;;;;;;4.55;3.03;;;;;;;6.63;69.22;97964.63;5053030;28;20032;-79
2021/10/13 07:00:39;;;;;;;3.72;2.63;;;;;;;6.73;69.06;97966.78;5052517;28;20039;-79
2021/10/13 07:03:05;;;;;;;4.68;3.00;;;;;;;6.78;69.09;97968.78;5070026;28;20111;-79
2021/10/13 07:05:30;;;;;;;4.72;2.95;;;;;;;6.90;69.24;97975.75;5054509;28;20103;-79
2021/10/13 07:07:56;;;;;;;6.15;2.78;;;;;;;6.93;68.64;97972.75;5107883;28;20039;-79
2021/10/13 07:10:21;;;;;;;4.20;2.65;;;;;;;7.01;68.72;97976.13;5107544;28;20039;-79
2021/10/13 07:12:47;;;;;;;3.78;2.35;;;;;;;7.13;68.20;97972.75;5063452;28;20032;-79
2021/10/13 07:15:13;;;;;;;6.25;2.63;;;;;;;7.20;68.05;97966.75;5047873;28;20517;-79
2021/10/13 07:17:38;;;;;;;5.35;3.10;;;;;;;7.15;68.85;97974.34;5048567;28;20370;-79
2021/10/13 07:20:05;;;;;;;9.32;2.50;;;;;;;7.23;68.80;97982.69;5047524;28;20032;-79
2021/10/13 07:22:31;;;;;;;4.05;1.75;;;;;;;7.25;68.29;97975.50;5072815;28;20055;-79
2021/10/13 07:24:58;;;;;;;4.88;2.45;;;;;;;7.36;68.44;97983.66;5067715;28;20071;-78
2021/10/13 07:27:23;;;;;;;4.03;2.33;;;;;;;7.46;67.93;97989.22;5067935;28;20036;-79
2021/10/13 07:29:56;;;;;;;4.32;2.15;;;;;;;7.55;68.15;97982.78;5098827;28;20047;-79
2021/10/13 07:32:27;;;;;;;5.07;2.65;;;;;;;7.59;68.03;97989.19;5048242;28;20083;-79
2021/10/13 07:34:52;;;;;;;5.05;2.75;;;;;;;7.63;67.99;97992.94;5066591;28;20032;-79
2021/10/13 07:37:19;;;;;;;6.10;2.88;;;;;;;7.60;69.58;98005.50;5068481;28;20435;-79
2021/10/13 07:39:44;;;;;;;6.78;3.63;;;;;;;7.70;69.49;98008.47;5097377;28;20019;-79
2021/10/13 07:42:11;;;;;;;6.40;3.75;;;;;;;7.80;69.48;98010.63;5054236;28;20545;-79
2021/10/13 07:44:36;;;;;;;6.20;3.60;;;;;;;7.91;68.93;98009.97;5073631;28;20024;-79
2021/10/13 07:47:02;;;;;;;8.27;4.63;;;;;;;8.03;69.06;98015.31;5055938;28;20093;-79
2021/10/13 07:49:27;;;;;;;7.25;4.57;;;;;;;8.18;68.83;98015.03;5056243;28;20124;-79
2021/10/13 07:51:53;;;;;;;7.63;5.38;;;;;;;8.22;69.60;98016.22;5056088;28;20170;-79
2021/10/13 07:54:20;;;;;;;8.00;5.30;;;;;;;8.39;69.42;98024.31;5056333;28;20027;-79
2021/10/13 07:56:46;;;;;;;6.63;4.38;;;;;;;8.51;69.56;98020.06;5053105;28;20477;-79
2021/10/13 07:59:11;;;;;;;8.90;5.43;;;;;;;8.61;69.88;98023.00;5052889;28;20097;-79
2021/10/13 08:01:37;;;;;;;7.80;4.43;;;;;;;8.84;68.86;98026.81;5019675;28;20086;-79
2021/10/13 08:04:03;;;;;;;6.53;3.78;;;;;;;8.96;67.93;98022.53;5052796;28;20032;-79
2021/10/13 08:06:28;;;;;;;8.23;4.22;;;;;;;9.03;68.47;98026.88;5036292;28;20060;-79
2021/10/13 08:08:54;;;;;;;7.85;4.63;;;;;;;9.01;67.90;98027.06;5041057;28;20107;-79
2021/10/13 08:11:19;;;;;;;8.40;5.07;;;;;;;9.19;68.21;98029.72;5065224;28;20048;-79
2021/10/13 08:13:44;;;;;;;7.85;4.22;;;;;;;9.31;67.75;98034.22;5064173;28;20060;-79
2021/10/13 08:16:10;;;;;;;7.10;3.60;;;;;;;9.30;68.11;98027.44;5070398;28;20290;-79
2021/10/13 08:18:35;;;;;;;7.53;4.57;;;;;;;9.45;67.94;98035.69;5035621;28;20496;-79
2021/10/13 08:21:01;;;;;;;7.40;4.50;;;;;;;9.49;67.75;98039.47;5068725;28;20036;-80
2021/10/13 08:23:26;;;;;;;8.10;4.88;;;;;;;9.49;67.72;98042.06;5019015;28;20047;-79
2021/10/13 08:25:55;;;;;;;12.02;5.07;;;;;;;9.56;68.09;98045.38;5051912;28;20032;-79
2021/10/13 08:28:21;;;;;;;8.55;4.68;;;;;;;9.70;67.77;98043.44;5035293;28;20376;-79
2021/10/13 08:30:47;;;;;;;8.95;5.15;;;;;;;9.74;67.88;98049.78;5067800;28;20043;-79
2021/10/13 08:33:12;;;;;;;9.98;5.18;;;;;;;9.81;67.60;98046.31;5051453;28;20032;-79
2021/10/13 08:35:37;;;;;;;7.50;5.05;;;;;;;9.86;67.80;98036.84;5052035;28;20052;-79
2021/10/13 08:38:03;;;;;;;8.45;4.60;;;;;;;9.92;68.15;98048.16;5051888;28;20060;-79
2021/10/13 08:40:29;;;;;;;10.50;5.13;;;;;;;10.02;68.15;98045.06;5051805;28;20405;-79
2021/10/13 08:42:59;;;;;;;10.85;5.03;;;;;;;9.96;68.23;98044.13;5051140;28;20036;-79
2021/10/13 08:45:26;;;;;;;9.90;5.45;;;;;;;10.16;68.21;98046.50;5071212;28;20032;-80
2021/10/13 08:47:52;;;;;;;8.38;4.97;;;;;;;10.27;68.40;98037.16;5071772;28;20027;-79
2021/10/13 08:50:21;;;;;;;7.93;4.75;;;;;;;10.38;67.80;98039.00;5053949;28;20082;-79
2021/10/13 08:52:46;;;;;;;9.10;5.00;;;;;;;10.68;67.21;98033.00;5071330;28;20217;-79
2021/10/13 08:55:12;;;;;;;9.05;5.13;;;;;;;10.90;66.31;98032.44;5037862;28;20032;-80
2021/10/13 08:57:38;;;;;;;8.95;5.28;;;;;;;11.00;66.13;98040.50;5071575;28;20378;-80
2021/10/13 09:00:04;;;;;;;7.10;4.65;;;;;;;11.04;66.06;98034.63;5054855;28;20032;-79
2021/10/13 09:02:42;;;;;;;10.95;5.47;;;;;;;10.86;67.03;98045.13;5071286;28;20032;-80
2021/10/13 09:05:14;;;;;;;8.07;5.03;;;;;;;10.94;66.66;98046.63;5054860;28;20123;-80
2021/10/13 09:07:47;;;;;;;8.75;5.05;;;;;;;10.91;65.64;98039.25;5069922;28;20428;-79
2021/10/13 09:10:12;;;;;;;8.68;4.65;;;;;;;11.03;66.61;98046.06;5054079;28;20028;-80
2021/10/13 09:12:40;;;;;;;8.65;5.47;;;;;;;11.00;65.85;98054.34;5070762;28;20439;-80
2021/10/13 09:15:10;;;;;;;7.22;4.72;;;;;;;10.98;66.44;98053.75;5051434;28;20028;-80
2021/10/13 09:17:56;;;;;;;9.15;4.68;;;;;;;10.86;66.46;98060.78;5050307;28;20048;-80
2021/10/13 09:20:27;;;;;;;11.45;5.70;;;;;;;11.00;65.84;98062.16;5050883;28;20033;-80
2021/10/13 09:23:01;;;;;;;10.02;4.80;;;;;;;11.18;65.67;98069.09;5034364;28;20548;-80
2021/10/13 09:25:27;;;;;;;8.60;4.20;;;;;;;11.27;66.52;98066.94;5051231;28;20127;-80
2021/10/13 09:27:53;;;;;;;9.10;4.00;;;;;;;11.30;66.11;98071.69;5034540;28;20652;-80
2021/10/13 09:30:41;;;;;;;7.18;3.97;;;;;;;11.06;67.39;98069.06;5050635;28;20091;-80
2021/10/13 09:33:16;;;;;;;8.65;5.00;;;;;;;11.16;67.39;98065.13;5034217;28;20037;-80
2021/10/13 09:35:44;;;;;;;9.65;4.75;;;;;;;11.37;67.25;98072.38;5033422;28;20033;-80
2021/10/13 09:38:13;;;;;;;18.30;4.88;;;;;;;11.47;66.66;98082.25;5050424;28;20068;-80
2021/10/13 09:40:38;;;;;;;7.68;3.95;;;;;;;11.63;65.79;98078.16;5068071;28;20087;-80
2021/10/13 09:43:04;;;;;;;5.32;3.30;;;;;;;11.71;64.60;98077.03;5034087;28;20032;-80
2021/10/13 09:45:31;;;;;;;8.45;4.47;;;;;;;11.58;66.02;98078.84;5033945;28;20033;-80
2021/10/13 09:48:06;;;;;;;6.38;3.92;;;;;;;11.46;66.33;98077.25;5033996;28;20033;-80
2021/10/13 09:50:42;;;;;;;;;;;;;;;11.23;67.89;98081.44;5050608;28;20539;-80
2021/10/13 09:53:18;;;;;;;7.82;4.65;;;;;;;11.52;66.76;98066.72;5050257;28;19958;-80
2021/10/13 09:55:44;;;;;;;12.20;5.30;;;;;;;11.77;66.84;98076.91;5050838;28;20500;-80
2021/10/13 09:58:31;;;;;;;9.90;5.07;;;;;;;11.60;66.33;98070.78;5033594;28;20059;-80
2021/10/13 10:01:06;;;;;;;7.20;4.35;;;;;;;11.64;66.00;98073.75;5050470;28;20062;-80
2021/10/13 10:03:34;;;;;;;8.40;5.50;;;;;;;11.77;65.72;98071.69;5068500;28;20419;-80
2021/10/13 10:06:00;;;;;;;8.90;4.70;;;;;;;11.87;64.78;98065.84;5032733;28;20032;-81
2021/10/13 10:08:25;;;;;;;7.78;4.22;;;;;;;11.92;65.67;98075.66;5062125;28;20073;-80
2021/10/13 10:11:02;;;;;;;7.53;4.82;;;;;;;11.64;66.05;98086.78;5053114;28;20039;-80
2021/10/13 10:13:36;;;;;;;6.75;3.70;;;;;;;11.80;64.24;98084.25;5053307;28;20521;-80
2021/10/13 10:16:02;;;;;;;7.65;4.63;;;;;;;11.99;65.71;98076.31;5053771;28;20070;-81
2021/10/13 10:18:35;;;;;;;7.60;5.07;;;;;;;11.86;65.73;98079.94;5070254;28;20113;-80
2021/10/13 10:21:15;;;;;;;5.97;3.85;;;;;;;11.90;65.05;98080.28;5069925;28;20031;-81
2021/10/13 10:23:41;;;;;;;9.82;3.83;;;;;;;12.10;64.58;98080.72;5053626;28;20024;-81
2021/10/13 10:26:24;;;;;;;6.93;3.92;;;;;;;11.79;65.39;98085.28;5053381;28;20032;-80
2021/10/13 10:28:50;;;;;;;4.88;3.33;;;;;;;12.31;63.29;98086.31;5088205;28;20028;-81
2021/10/13 10:31:27;;;;;;;7.93;3.65;;;;;;;12.20;64.67;98081.91;5087724;28;20395;-81
2021/10/13 10:34:12;;;;;;;7.40;3.40;;;;;;;12.14;64.52;98087.03;5069953;28;20027;-80
2021/10/13 10:36:44;;;;;;;;;;;;;;;12.02;65.43;98088.91;5053468;28;20025;-81
2021/10/13 10:39:14;;;;;;;6.00;3.38;;;;;;;12.36;64.74;98089.03;5069544;28;19908;-81
2021/10/13 10:41:45;;;;;;;6.03;3.22;;;;;;;12.41;64.25;98094.34;5080999;28;20487;-81
2021/10/13 10:44:29;;;;;;;5.72;4.00;;;;;;;12.36;63.84;98095.03;5040758;28;20134;-81
2021/10/13 10:47:14;;;;;;;5.30;3.33;;;;;;;12.33;63.69;98090.28;5077028;28;20035;-81
2021/10/13 10:49:43;;;;;;;5.93;3.33;;;;;;;12.48;63.64;98091.59;5057539;28;20035;-80
2021/10/13 10:52:09;;;;;;;5.63;3.33;;;;;;;12.55;63.79;98087.03;5080574;28;20032;-80
2021/10/13 10:54:35;;;;;;;6.47;3.70;;;;;;;12.81;63.44;98080.41;5067802;28;20024;-81
2021/10/13 10:57:00;;;;;;;6.18;3.97;;;;;;;13.01;63.14;98079.16;5073205;28;20042;-81
2021/10/13 10:59:38;;;;;;;5.53;3.22;;;;;;;13.05;62.20;98085.50;5073300;28;20032;-81
2021/10/13 11:02:09;;;;;;;4.93;3.13;;;;;;;13.35;59.49;98079.16;5056717;28;20032;-81
2021/10/13 11:04:34;;;;;;;6.93;3.80;;;;;;;13.94;58.36;98066.34;5073327;28;20051;-81
2021/10/13 11:07:01;;;;;;;4.60;3.00;;;;;;;14.35;57.17;98077.28;5088290;28;20652;-80
2021/10/13 11:09:30;;;;;;;4.50;3.00;;;;;;;14.51;56.42;98069.56;5069159;28;20036;-81
2021/10/13 11:11:55;;;;;;;5.03;2.92;;;;;;;14.59;57.23;98069.16;5052607;28;20032;-81
2021/10/13 11:14:24;;;;;;;5.18;3.05;;;;;;;14.85;56.69;98072.78;5055867;28;20042;-81
2021/10/13 11:16:59;;;;;;;5.25;2.63;;;;;;;14.94;56.17;98073.13;5080525;28;20103;-81
2021/10/13 11:19:33;;;;;;;3.95;3.10;;;;;;;14.66;56.59;98080.22;5056939;28;20013;-80
2021/10/13 11:21:59;;;;;;;5.18;2.83;;;;;;;14.87;56.46;98075.94;5076026;28;20031;-80
2021/10/13 11:24:25;;;;;;;4.03;2.67;;;;;;;14.48;56.53;98083.97;5057525;28;20028;-80
2021/10/13 11:26:51;;;;;;;6.32;3.30;;;;;;;14.26;57.73;98078.75;5058460;28;20170;-80
2021/10/13 11:29:28;;;;;;;4.65;2.55;;;;;;;13.80;58.97;98080.84;5057765;28;20028;-80
2021/10/13 11:32:14;;;;;;;4.50;2.63;;;;;;;13.80;59.04;98073.78;5075188;28;20063;-80
2021/10/13 11:34:40;;;;;;;6.90;3.05;;;;;;;13.92;58.13;98078.09;5074736;28;20093;-81
2021/10/13 11:37:06;;;;;;;4.85;2.95;;;;;;;13.86;58.53;98079.84;5075453;28;20033;-80
2021/10/13 11:39:35;;;;;;;6.03;2.72;;;;;;;13.72;58.44;98082.03;5074919;28;20103;-80
2021/10/13 11:42:01;;;;;;;3.95;2.70;;;;;;;13.78;58.68;98088.16;5041347;28;20025;-80